createdAt,value
2017-05-20T00:00:07.999Z,923.94
2017-05-20T00:00:36.387Z,924
2017-05-20T00:01:04.817Z,923.94
2017-05-20T00:01:33.194Z,923.89
2017-05-20T00:02:01.577Z,923.92
2017-05-20T00:02:29.958Z,923.93
2017-05-20T00:02:58.345Z,923.87
2017-05-20T00:04:09.593Z,923.86
2017-05-20T00:04:37.802Z,923.87
2017-05-20T00:05:06.153Z,923.93
2017-05-20T00:05:34.550Z,923.88
2017-05-20T00:06:02.876Z,923.82
2017-05-20T00:06:31.313Z,923.77
2017-05-20T00:06:59.725Z,923.75
2017-05-20T00:07:28.144Z,923.71
2017-05-20T00:07:56.526Z,923.73
2017-05-20T00:08:24.722Z,923.74
2017-05-20T00:08:53.105Z,923.77
2017-05-20T00:10:04.354Z,923.74
2017-05-20T00:10:32.653Z,923.72
2017-05-20T00:11:01.006Z,923.74
2017-05-20T00:11:29.387Z,923.75
2017-05-20T00:11:57.808Z,923.75
2017-05-20T00:12:26.299Z,923.8
2017-05-20T00:12:54.778Z,923.84
2017-05-20T00:13:23.089Z,923.89
2017-05-20T00:13:51.441Z,923.88
2017-05-20T00:14:19.764Z,923.92
2017-05-20T00:14:48.095Z,923.99
2017-05-20T00:15:59.467Z,923.98
2017-05-20T00:16:27.731Z,923.94
2017-05-20T00:16:56.082Z,923.92
2017-05-20T00:17:24.477Z,923.93
2017-05-20T00:17:52.900Z,923.91
2017-05-20T00:18:21.367Z,923.92
2017-05-20T00:18:49.593Z,923.93
2017-05-20T00:19:17.809Z,923.93
2017-05-20T00:19:46.091Z,923.95
2017-05-20T00:20:14.443Z,923.98
2017-05-20T00:20:42.822Z,923.99
2017-05-20T00:21:54.180Z,924.05
2017-05-20T00:22:22.567Z,924.21
2017-05-20T00:22:51.021Z,924.28
2017-05-20T00:23:19.414Z,924.27
2017-05-20T00:23:47.669Z,924.29
2017-05-20T00:24:16.100Z,924.29
2017-05-20T00:24:44.581Z,924.2
2017-05-20T00:25:12.883Z,924.14
2017-05-20T00:25:41.165Z,924.15
2017-05-20T00:26:09.551Z,924.06
2017-05-20T00:26:37.938Z,924.03
2017-05-20T00:27:49.388Z,923.99
2017-05-20T00:28:17.566Z,923.99
2017-05-20T00:28:46.003Z,923.99
2017-05-20T00:29:14.349Z,923.95
2017-05-20T00:29:42.635Z,923.95
2017-05-20T00:30:10.974Z,923.99
2017-05-20T00:30:39.343Z,924.05
2017-05-20T00:31:07.700Z,924.03
2017-05-20T00:31:36.009Z,923.99
2017-05-20T00:32:04.378Z,923.94
2017-05-20T00:32:32.761Z,923.9
2017-05-20T00:33:44.204Z,923.88
2017-05-20T00:34:12.528Z,923.71
2017-05-20T00:34:41.012Z,923.65
2017-05-20T00:35:09.413Z,923.62
2017-05-20T00:35:37.848Z,923.63
2017-05-20T00:36:06.347Z,923.63
2017-05-20T00:36:34.676Z,923.64
2017-05-20T00:37:02.925Z,923.68
2017-05-20T00:37:31.325Z,923.7
2017-05-20T00:37:59.603Z,923.74
2017-05-20T00:38:28.014Z,923.72
2017-05-20T00:39:39.265Z,923.68
2017-05-20T00:40:07.560Z,923.59
2017-05-20T00:40:35.837Z,923.51
2017-05-20T00:41:04.246Z,923.5
2017-05-20T00:41:32.489Z,923.42
2017-05-20T00:42:01.098Z,923.4
2017-05-20T00:42:29.542Z,923.38
2017-05-20T00:42:57.958Z,923.33
2017-05-20T00:43:26.279Z,923.31
2017-05-20T00:43:54.635Z,923.26
2017-05-20T00:44:22.894Z,923.24
2017-05-20T00:45:34.263Z,923.18
2017-05-20T00:46:02.565Z,923.2
2017-05-20T00:46:30.773Z,923.19
2017-05-20T00:46:59.189Z,923.19
2017-05-20T00:47:27.385Z,923.18
2017-05-20T00:47:55.788Z,923.23
2017-05-20T00:48:24.238Z,923.3
2017-05-20T00:48:52.507Z,923.3
2017-05-20T00:49:20.863Z,923.32
2017-05-20T00:49:49.086Z,923.38
2017-05-20T00:50:17.404Z,923.39
2017-05-20T00:51:28.780Z,923.34
2017-05-20T00:51:56.934Z,923.29
2017-05-20T00:52:25.289Z,923.25
2017-05-20T00:52:53.742Z,923.24
2017-05-20T00:53:22.057Z,923.18
2017-05-20T00:53:50.381Z,923.12
2017-05-20T00:54:18.699Z,923.07
2017-05-20T00:54:47.090Z,923.01
2017-05-20T00:55:15.141Z,923.02
2017-05-20T00:55:43.503Z,923
2017-05-20T00:56:11.833Z,923.02
2017-05-20T00:57:23.200Z,922.99
2017-05-20T00:57:51.462Z,922.98
2017-05-20T00:58:19.852Z,923.01
2017-05-20T00:58:48.124Z,923.04
2017-05-20T00:59:16.495Z,923.07
2017-05-20T00:59:44.903Z,923.08
2017-05-20T01:00:13.269Z,923.13
2017-05-20T01:00:41.628Z,923.12
2017-05-20T01:01:09.973Z,923.14
2017-05-20T01:01:38.330Z,923.12
2017-05-20T01:02:06.585Z,923.08
2017-05-20T01:03:18.008Z,923.08
2017-05-20T01:03:46.162Z,922.97
2017-05-20T01:04:14.523Z,922.93
2017-05-20T01:04:42.903Z,922.85
2017-05-20T01:05:11.274Z,922.86
2017-05-20T01:05:39.563Z,922.82
2017-05-20T01:06:07.833Z,922.81
2017-05-20T01:06:36.097Z,922.81
2017-05-20T01:07:04.504Z,922.83
2017-05-20T01:07:32.876Z,922.79
2017-05-20T01:08:01.113Z,922.8
2017-05-20T01:09:12.399Z,922.79
2017-05-20T01:09:40.720Z,922.74
2017-05-20T01:10:09.216Z,922.71
2017-05-20T01:10:37.602Z,922.65
2017-05-20T01:11:06.032Z,922.62
2017-05-20T01:11:34.403Z,922.58
2017-05-20T01:12:02.796Z,922.58
2017-05-20T01:12:31.149Z,922.54
2017-05-20T01:12:59.417Z,922.51
2017-05-20T01:13:27.794Z,922.45
2017-05-20T01:13:56.128Z,922.4
2017-05-20T01:15:07.550Z,922.36
2017-05-20T01:15:35.933Z,922.29
2017-05-20T01:16:04.211Z,922.22
2017-05-20T01:16:32.541Z,922.17
2017-05-20T01:17:00.892Z,922.11
2017-05-20T01:17:29.195Z,922.05
2017-05-20T01:17:57.514Z,922
2017-05-20T01:18:25.898Z,922.02
2017-05-20T01:18:54.262Z,921.95
2017-05-20T01:19:22.619Z,921.92
2017-05-20T01:19:50.908Z,921.88
2017-05-20T01:21:02.191Z,921.88
2017-05-20T01:21:30.591Z,921.79
2017-05-20T01:21:58.952Z,921.77
2017-05-20T01:22:27.306Z,921.81
2017-05-20T01:22:55.608Z,921.8
2017-05-20T01:23:24.022Z,921.76
2017-05-20T01:23:52.359Z,921.73
2017-05-20T01:24:20.584Z,921.68
2017-05-20T01:24:48.915Z,921.7
2017-05-20T01:25:17.324Z,921.65
2017-05-20T01:25:45.693Z,921.6
2017-05-20T01:26:56.981Z,921.59
2017-05-20T01:27:25.205Z,921.55
2017-05-20T01:27:53.561Z,921.51
2017-05-20T01:28:21.975Z,921.5
2017-05-20T01:28:50.261Z,921.56
2017-05-20T01:29:18.582Z,921.56
2017-05-20T01:29:46.953Z,921.58
2017-05-20T01:30:15.291Z,921.59
2017-05-20T01:30:43.651Z,921.59
2017-05-20T01:31:11.901Z,921.58
2017-05-20T01:31:40.143Z,921.58
2017-05-20T01:32:51.452Z,921.55
2017-05-20T01:33:19.740Z,921.61
2017-05-20T01:33:48.176Z,921.62
2017-05-20T01:34:16.457Z,921.64
2017-05-20T01:34:44.838Z,921.67
2017-05-20T01:35:13.280Z,921.69
2017-05-20T01:35:41.807Z,921.76
2017-05-20T01:36:10.346Z,921.76
2017-05-20T01:36:38.771Z,921.74
2017-05-20T01:37:07.039Z,921.82
2017-05-20T01:37:35.455Z,921.82
2017-05-20T01:38:46.851Z,921.85
2017-05-20T01:39:15.187Z,921.92
2017-05-20T01:39:43.673Z,921.97
2017-05-20T01:40:11.929Z,921.97
2017-05-20T01:40:40.260Z,921.99
2017-05-20T01:41:08.767Z,921.89
2017-05-20T01:41:37.275Z,921.84
2017-05-20T01:42:05.687Z,921.72
2017-05-20T01:42:34.037Z,921.63
2017-05-20T01:43:02.313Z,921.44
2017-05-20T01:43:30.726Z,921.27
2017-05-20T01:44:42.002Z,921.04
2017-05-20T01:45:10.338Z,920.53
2017-05-20T01:45:38.741Z,920.35
2017-05-20T01:46:07.027Z,920.23
2017-05-20T01:46:35.401Z,920.16
2017-05-20T01:47:03.913Z,920.14
2017-05-20T01:47:32.215Z,920.13
2017-05-20T01:48:00.549Z,920.14
2017-05-20T01:48:28.813Z,920.15
2017-05-20T01:48:57.194Z,920.18
2017-05-20T01:49:25.532Z,920.22
2017-05-20T01:50:37.018Z,920.23
2017-05-20T01:51:05.291Z,920.21
2017-05-20T01:51:33.687Z,920.21
2017-05-20T01:52:02.081Z,920.26
2017-05-20T01:52:30.365Z,920.26
2017-05-20T01:52:58.912Z,920.22
2017-05-20T01:53:27.396Z,920.28
2017-05-20T01:53:55.803Z,920.27
2017-05-20T01:54:24.153Z,920.31
2017-05-20T01:54:52.423Z,920.43
2017-05-20T01:55:20.693Z,920.51
2017-05-20T01:56:32.102Z,920.54
2017-05-20T01:57:00.365Z,920.63
2017-05-20T01:57:28.864Z,920.64
2017-05-20T01:57:57.234Z,920.62
2017-05-20T01:58:25.519Z,920.66
2017-05-20T01:58:53.791Z,920.6
2017-05-20T01:59:22.200Z,920.58
2017-05-20T01:59:50.491Z,920.6
2017-05-20T02:00:18.840Z,920.55
2017-05-20T02:00:47.153Z,920.58
2017-05-20T02:01:15.494Z,920.57
2017-05-20T02:02:26.806Z,920.59
2017-05-20T02:02:55.044Z,920.61
2017-05-20T02:03:23.396Z,920.58
2017-05-20T02:03:51.649Z,920.57
2017-05-20T02:04:20.029Z,920.53
2017-05-20T02:04:48.456Z,920.52
2017-05-20T02:05:16.857Z,920.54
2017-05-20T02:05:45.279Z,920.49
2017-05-20T02:06:13.516Z,920.46
2017-05-20T02:06:41.916Z,920.45
2017-05-20T02:07:10.261Z,920.42
2017-05-20T02:08:21.546Z,920.4
2017-05-20T02:08:49.940Z,920.4
2017-05-20T02:09:18.281Z,920.43
2017-05-20T02:09:46.423Z,920.49
2017-05-20T02:10:14.837Z,920.48
2017-05-20T02:10:43.294Z,920.51
2017-05-20T02:11:11.565Z,920.5
2017-05-20T02:11:39.790Z,920.51
2017-05-20T02:12:08.135Z,920.48
2017-05-20T02:12:36.364Z,920.47
2017-05-20T02:13:04.705Z,920.41
2017-05-20T02:14:15.977Z,920.36
2017-05-20T02:14:44.378Z,920.24
2017-05-20T02:15:12.798Z,920.15
2017-05-20T02:15:41.154Z,920.08
2017-05-20T02:16:09.522Z,920.01
2017-05-20T02:16:37.943Z,919.88
2017-05-20T02:17:06.188Z,919.83
2017-05-20T02:17:34.485Z,919.8
2017-05-20T02:18:02.885Z,919.79
2017-05-20T02:18:31.123Z,919.8
2017-05-20T02:18:59.512Z,919.81
2017-05-20T02:20:10.878Z,919.9
2017-05-20T02:20:39.241Z,920.05
2017-05-20T02:21:07.652Z,920.14
2017-05-20T02:21:35.908Z,920.24
2017-05-20T02:22:04.196Z,920.34
2017-05-20T02:22:32.704Z,920.41
2017-05-20T02:23:01.139Z,920.56
2017-05-20T02:23:29.457Z,920.63
2017-05-20T02:23:57.921Z,920.7
2017-05-20T02:24:26.074Z,920.84
2017-05-20T02:24:54.465Z,920.88
2017-05-20T02:26:05.775Z,920.88
2017-05-20T02:26:34.116Z,920.94
2017-05-20T02:27:02.526Z,920.94
2017-05-20T02:27:30.790Z,920.93
2017-05-20T02:27:59.070Z,920.97
2017-05-20T02:28:27.491Z,920.99
2017-05-20T02:28:55.873Z,921
2017-05-20T02:29:24.057Z,920.94
2017-05-20T02:29:52.409Z,920.95
2017-05-20T02:30:20.452Z,920.88
2017-05-20T02:30:48.778Z,920.77
2017-05-20T02:32:00.055Z,920.76
2017-05-20T02:32:28.403Z,920.67
2017-05-20T02:32:56.817Z,920.58
2017-05-20T02:33:24.988Z,920.6
2017-05-20T02:33:53.184Z,920.58
2017-05-20T02:34:21.466Z,920.57
2017-05-20T02:34:49.764Z,920.55
2017-05-20T02:35:18.048Z,920.58
2017-05-20T02:35:46.277Z,920.53
2017-05-20T02:36:14.503Z,920.54
2017-05-20T02:36:42.844Z,920.56
2017-05-20T02:37:54.124Z,920.52
2017-05-20T02:38:22.467Z,920.6
2017-05-20T02:38:50.779Z,920.7
2017-05-20T02:39:19.016Z,920.75
2017-05-20T02:39:47.293Z,920.8
2017-05-20T02:40:15.570Z,920.86
2017-05-20T02:40:43.955Z,920.95
2017-05-20T02:41:12.213Z,921.03
2017-05-20T02:41:40.465Z,921.03
2017-05-20T02:42:08.507Z,921.09
2017-05-20T02:42:36.849Z,921.06
2017-05-20T02:43:48.137Z,921.13
2017-05-20T02:44:16.394Z,921.13
2017-05-20T02:44:44.737Z,921.12
2017-05-20T02:45:12.898Z,921.16
2017-05-20T02:45:41.277Z,921.14
2017-05-20T02:46:09.555Z,921.17
2017-05-20T02:46:37.967Z,921.14
2017-05-20T02:47:06.245Z,921.19
2017-05-20T02:47:34.544Z,921.23
2017-05-20T02:48:02.890Z,921.3
2017-05-20T02:48:31.349Z,921.3
2017-05-20T02:49:42.762Z,921.37
2017-05-20T02:50:11.107Z,921.46
2017-05-20T02:50:39.354Z,921.55
2017-05-20T02:51:07.629Z,921.61
2017-05-20T02:51:36.014Z,921.66
2017-05-20T02:52:04.501Z,921.68
2017-05-20T02:52:32.944Z,921.76
2017-05-20T02:53:01.317Z,921.83
2017-05-20T02:53:29.674Z,921.88
2017-05-20T02:53:57.919Z,921.92
2017-05-20T02:54:26.175Z,921.93
2017-05-20T02:55:37.361Z,921.93
2017-05-20T02:56:05.716Z,921.99
2017-05-20T02:56:34.139Z,921.98
2017-05-20T02:57:02.502Z,922.01
2017-05-20T02:57:30.687Z,922.03
2017-05-20T02:57:59.121Z,922.03
2017-05-20T02:58:27.463Z,922.03
2017-05-20T02:58:55.742Z,922.04
2017-05-20T02:59:24.012Z,922.13
2017-05-20T02:59:52.283Z,922.11
2017-05-20T03:00:20.541Z,922.16
2017-05-20T03:01:31.831Z,922.18
2017-05-20T03:02:00.182Z,922.27
2017-05-20T03:02:28.535Z,922.23
2017-05-20T03:02:56.882Z,922.23
2017-05-20T03:03:25.186Z,922.3
2017-05-20T03:03:53.650Z,922.32
2017-05-20T03:04:22.081Z,922.3
2017-05-20T03:04:50.457Z,922.3
2017-05-20T03:05:18.787Z,922.32
2017-05-20T03:05:47.041Z,922.34
2017-05-20T03:06:15.390Z,922.39
2017-05-20T03:07:26.623Z,922.41
2017-05-20T03:07:54.968Z,922.48
2017-05-20T03:08:23.317Z,922.5
2017-05-20T03:08:51.459Z,922.54
2017-05-20T03:09:19.741Z,922.6
2017-05-20T03:09:48.191Z,922.6
2017-05-20T03:10:16.588Z,922.63
2017-05-20T03:10:44.846Z,922.61
2017-05-20T03:11:13.095Z,922.69
2017-05-20T03:11:41.320Z,922.63
2017-05-20T03:12:09.480Z,922.62
2017-05-20T03:13:20.761Z,922.66
2017-05-20T03:13:49.092Z,922.66
2017-05-20T03:14:17.430Z,922.69
2017-05-20T03:14:45.695Z,922.67
2017-05-20T03:15:13.910Z,922.67
2017-05-20T03:15:42.321Z,922.71
2017-05-20T03:16:10.761Z,922.7
2017-05-20T03:16:39.131Z,922.74
2017-05-20T03:17:07.368Z,922.74
2017-05-20T03:17:35.693Z,922.74
2017-05-20T03:18:04.030Z,922.75
2017-05-20T03:19:15.307Z,922.78
2017-05-20T03:19:43.395Z,922.81
2017-05-20T03:20:11.803Z,922.82
2017-05-20T03:20:40.133Z,922.8
2017-05-20T03:21:08.501Z,922.86
2017-05-20T03:21:36.953Z,922.87
2017-05-20T03:22:05.343Z,922.91
2017-05-20T03:22:33.738Z,922.92
2017-05-20T03:23:02.105Z,922.93
2017-05-20T03:23:30.251Z,922.94
2017-05-20T03:23:58.524Z,922.9
2017-05-20T03:25:09.894Z,922.91
2017-05-20T03:25:38.140Z,923
2017-05-20T03:26:06.542Z,923.02
2017-05-20T03:26:34.783Z,923.02
2017-05-20T03:27:03.154Z,923.06
2017-05-20T03:27:31.390Z,923.04
2017-05-20T03:27:59.672Z,923.05
2017-05-20T03:28:27.842Z,923.06
2017-05-20T03:28:56.078Z,923.04
2017-05-20T03:29:24.310Z,923.04
2017-05-20T03:29:52.550Z,923.01
2017-05-20T03:31:03.918Z,923.01
2017-05-20T03:31:32.243Z,922.91
2017-05-20T03:32:00.629Z,922.87
2017-05-20T03:32:28.684Z,922.87
2017-05-20T03:32:57.058Z,922.81
2017-05-20T03:33:25.290Z,922.78
2017-05-20T03:33:53.679Z,922.75
2017-05-20T03:34:21.943Z,922.74
2017-05-20T03:34:50.269Z,922.71
2017-05-20T03:35:18.310Z,922.67
2017-05-20T03:35:46.638Z,922.66
2017-05-20T03:36:57.912Z,922.61
2017-05-20T03:37:26.249Z,922.6
2017-05-20T03:37:54.641Z,922.64
2017-05-20T03:38:22.972Z,922.64
2017-05-20T03:38:51.348Z,922.69
2017-05-20T03:39:19.762Z,922.73
2017-05-20T03:39:48.044Z,922.72
2017-05-20T03:40:16.402Z,922.78
2017-05-20T03:40:44.449Z,922.81
2017-05-20T03:41:12.763Z,922.84
2017-05-20T03:41:41.002Z,922.82
2017-05-20T03:42:52.369Z,922.85
2017-05-20T03:43:20.695Z,922.9
2017-05-20T03:43:48.988Z,922.9
2017-05-20T03:44:17.318Z,922.89
2017-05-20T03:44:45.693Z,922.87
2017-05-20T03:45:14.098Z,922.87
2017-05-20T03:45:42.456Z,922.82
2017-05-20T03:46:10.709Z,922.84
2017-05-20T03:46:38.934Z,922.83
2017-05-20T03:47:07.161Z,922.82
2017-05-20T03:47:35.488Z,922.79
2017-05-20T03:48:46.581Z,922.81
2017-05-20T03:49:14.910Z,922.81
2017-05-20T03:49:43.114Z,922.81
2017-05-20T03:50:11.441Z,922.82
2017-05-20T03:50:39.813Z,922.79
2017-05-20T03:51:08.117Z,922.78
2017-05-20T03:51:36.292Z,922.8
2017-05-20T03:52:04.641Z,922.8
2017-05-20T03:52:32.959Z,922.82
2017-05-20T03:53:01.181Z,922.82
2017-05-20T03:53:29.412Z,922.78
2017-05-20T03:54:40.779Z,922.77
2017-05-20T03:55:09.119Z,922.73
2017-05-20T03:55:37.506Z,922.7
2017-05-20T03:56:05.739Z,922.68
2017-05-20T03:56:34.111Z,922.66
2017-05-20T03:57:02.420Z,922.63
2017-05-20T03:57:30.781Z,922.62
2017-05-20T03:57:59.123Z,922.6
2017-05-20T03:58:27.258Z,922.6
2017-05-20T03:58:55.389Z,922.59
2017-05-20T03:59:23.714Z,922.57
2017-05-20T04:00:34.898Z,922.56
2017-05-20T04:01:03.233Z,922.55
2017-05-20T04:01:31.620Z,922.55
2017-05-20T04:01:59.762Z,922.5
2017-05-20T04:02:28.043Z,922.49
2017-05-20T04:02:56.448Z,922.44
2017-05-20T04:03:24.707Z,922.46
2017-05-20T04:03:53.048Z,922.44
2017-05-20T04:04:21.275Z,922.4
2017-05-20T04:04:49.502Z,922.43
2017-05-20T04:05:17.837Z,922.4
2017-05-20T04:06:29.201Z,922.35
2017-05-20T04:06:57.533Z,922.33
2017-05-20T04:07:25.927Z,922.33
2017-05-20T04:07:54.254Z,922.33
2017-05-20T04:08:22.531Z,922.29
2017-05-20T04:08:50.937Z,922.34
2017-05-20T04:09:19.010Z,922.34
2017-05-20T04:09:47.357Z,922.31
2017-05-20T04:10:15.587Z,922.31
2017-05-20T04:10:43.911Z,922.33
2017-05-20T04:11:12.235Z,922.32
2017-05-20T04:12:23.512Z,922.36
2017-05-20T04:12:51.753Z,922.37
2017-05-20T04:13:20.046Z,922.41
2017-05-20T04:13:48.373Z,922.44
2017-05-20T04:14:16.740Z,922.46
2017-05-20T04:14:45.055Z,922.43
2017-05-20T04:15:13.408Z,922.49
2017-05-20T04:15:41.659Z,922.47
2017-05-20T04:16:09.894Z,922.53
2017-05-20T04:16:38.143Z,922.51
2017-05-20T04:17:06.480Z,922.53
2017-05-20T04:18:17.752Z,922.52
2017-05-20T04:18:46.086Z,922.46
2017-05-20T04:19:14.363Z,922.43
2017-05-20T04:19:42.599Z,922.47
2017-05-20T04:20:10.975Z,922.41
2017-05-20T04:20:39.382Z,922.39
2017-05-20T04:21:07.645Z,922.38
2017-05-20T04:21:35.900Z,922.39
2017-05-20T04:22:04.132Z,922.35
2017-05-20T04:22:32.358Z,922.33
2017-05-20T04:23:00.682Z,922.33
2017-05-20T04:24:11.957Z,922.35
2017-05-20T04:24:40.194Z,922.32
2017-05-20T04:25:08.577Z,922.35
2017-05-20T04:25:36.812Z,922.34
2017-05-20T04:26:05.087Z,922.32
2017-05-20T04:26:33.399Z,922.3
2017-05-20T04:27:01.658Z,922.28
2017-05-20T04:27:30.002Z,922.27
2017-05-20T04:27:58.233Z,922.26
2017-05-20T04:28:26.182Z,922.28
2017-05-20T04:28:54.420Z,922.25
2017-05-20T04:30:05.695Z,922.25
2017-05-20T04:30:33.932Z,922.32
2017-05-20T04:31:02.318Z,922.37
2017-05-20T04:31:30.642Z,922.37
2017-05-20T04:31:58.923Z,922.38
2017-05-20T04:32:27.328Z,922.36
2017-05-20T04:32:55.592Z,922.39
2017-05-20T04:33:23.845Z,922.37
2017-05-20T04:33:52.016Z,922.41
2017-05-20T04:34:20.209Z,922.4
2017-05-20T04:34:48.352Z,922.39
2017-05-20T04:35:59.443Z,922.4
2017-05-20T04:36:27.587Z,922.43
2017-05-20T04:36:55.973Z,922.39
2017-05-20T04:37:24.300Z,922.43
2017-05-20T04:37:52.675Z,922.41
2017-05-20T04:38:21.079Z,922.42
2017-05-20T04:38:49.346Z,922.42
2017-05-20T04:39:17.688Z,922.47
2017-05-20T04:39:46.011Z,922.47
2017-05-20T04:40:14.235Z,922.43
2017-05-20T04:40:42.471Z,922.46
2017-05-20T04:41:53.743Z,922.4
2017-05-20T04:42:22.068Z,922.39
2017-05-20T04:42:50.362Z,922.41
2017-05-20T04:43:18.595Z,922.4
2017-05-20T04:43:46.965Z,922.36
2017-05-20T04:44:15.369Z,922.34
2017-05-20T04:44:43.727Z,922.31
2017-05-20T04:45:12.068Z,922.31
2017-05-20T04:45:40.295Z,922.26
2017-05-20T04:46:08.522Z,922.31
2017-05-20T04:46:36.752Z,922.31
2017-05-20T04:47:48.024Z,922.26
2017-05-20T04:48:16.351Z,922.3
2017-05-20T04:48:44.637Z,922.36
2017-05-20T04:49:12.786Z,922.35
2017-05-20T04:49:41.059Z,922.34
2017-05-20T04:50:09.376Z,922.39
2017-05-20T04:50:37.733Z,922.39
2017-05-20T04:51:06.071Z,922.4
2017-05-20T04:51:34.291Z,922.43
2017-05-20T04:52:02.418Z,922.44
2017-05-20T04:52:30.743Z,922.46
2017-05-20T04:53:42.123Z,922.46
2017-05-20T04:54:10.451Z,922.5
2017-05-20T04:54:38.651Z,922.52
2017-05-20T04:55:06.980Z,922.5
2017-05-20T04:55:35.353Z,922.49
2017-05-20T04:56:03.759Z,922.53
2017-05-20T04:56:32.116Z,922.55
2017-05-20T04:57:00.368Z,922.53
2017-05-20T04:57:28.599Z,922.52
2017-05-20T04:57:56.829Z,922.57
2017-05-20T04:58:25.069Z,922.57
2017-05-20T04:59:36.345Z,922.55
2017-05-20T05:00:04.584Z,922.59
2017-05-20T05:00:32.936Z,922.57
2017-05-20T05:01:01.088Z,922.59
2017-05-20T05:01:29.454Z,922.58
2017-05-20T05:01:57.856Z,922.55
2017-05-20T05:02:26.118Z,922.53
2017-05-20T05:02:54.374Z,922.51
2017-05-20T05:03:22.698Z,922.51
2017-05-20T05:03:50.829Z,922.52
2017-05-20T05:04:19.061Z,922.49
2017-05-20T05:05:30.336Z,922.49
2017-05-20T05:05:58.665Z,922.48
2017-05-20T05:06:27.051Z,922.5
2017-05-20T05:06:55.380Z,922.51
2017-05-20T05:07:23.660Z,922.53
2017-05-20T05:07:52.059Z,922.49
2017-05-20T05:08:20.326Z,922.48
2017-05-20T05:08:48.675Z,922.43
2017-05-20T05:09:16.997Z,922.42
2017-05-20T05:09:45.221Z,922.41
2017-05-20T05:10:13.451Z,922.41
2017-05-20T05:11:24.821Z,922.39
2017-05-20T05:11:53.156Z,922.33
2017-05-20T05:12:21.453Z,922.36
2017-05-20T05:12:49.784Z,922.36
2017-05-20T05:13:18.058Z,922.33
2017-05-20T05:13:46.458Z,922.36
2017-05-20T05:14:14.717Z,922.3
2017-05-20T05:14:43.065Z,922.3
2017-05-20T05:15:11.392Z,922.26
2017-05-20T05:15:39.707Z,922.25
2017-05-20T05:16:08.036Z,922.25
2017-05-20T05:17:19.407Z,922.24
2017-05-20T05:17:47.654Z,922.18
2017-05-20T05:18:15.954Z,922.16
2017-05-20T05:18:44.286Z,922.12
2017-05-20T05:19:12.660Z,922.09
2017-05-20T05:19:40.878Z,922.07
2017-05-20T05:20:09.230Z,922
2017-05-20T05:20:37.579Z,921.97
2017-05-20T05:21:05.806Z,921.96
2017-05-20T05:21:34.123Z,921.94
2017-05-20T05:22:02.358Z,921.9
2017-05-20T05:23:13.636Z,921.96
2017-05-20T05:23:41.977Z,922.01
2017-05-20T05:24:10.183Z,922.03
2017-05-20T05:24:38.512Z,922.08
2017-05-20T05:25:06.781Z,922.11
2017-05-20T05:25:35.099Z,922.22
2017-05-20T05:26:03.454Z,922.22
2017-05-20T05:26:31.711Z,922.28
2017-05-20T05:27:00.033Z,922.27
2017-05-20T05:27:28.265Z,922.32
2017-05-20T05:27:56.409Z,922.33
2017-05-20T05:29:07.780Z,922.3
2017-05-20T05:29:36.119Z,922.38
2017-05-20T05:30:04.412Z,922.37
2017-05-20T05:30:32.742Z,922.38
2017-05-20T05:31:01.020Z,922.41
2017-05-20T05:31:29.425Z,922.47
2017-05-20T05:31:57.679Z,922.48
2017-05-20T05:32:26.027Z,922.5
2017-05-20T05:32:54.265Z,922.51
2017-05-20T05:33:22.582Z,922.54
2017-05-20T05:33:50.632Z,922.58
2017-05-20T05:35:01.912Z,922.57
2017-05-20T05:35:30.249Z,922.62
2017-05-20T05:35:58.540Z,922.62
2017-05-20T05:36:26.892Z,922.58
2017-05-20T05:36:55.265Z,922.58
2017-05-20T05:37:23.570Z,922.54
2017-05-20T05:37:51.925Z,922.57
2017-05-20T05:38:20.173Z,922.51
2017-05-20T05:38:48.508Z,922.49
2017-05-20T05:39:16.862Z,922.49
2017-05-20T05:39:45.098Z,922.5
2017-05-20T05:40:56.366Z,922.44
2017-05-20T05:41:24.703Z,922.36
2017-05-20T05:41:53.088Z,922.33
2017-05-20T05:42:21.424Z,922.33
2017-05-20T05:42:49.796Z,922.29
2017-05-20T05:43:18.179Z,922.25
2017-05-20T05:43:46.544Z,922.22
2017-05-20T05:44:14.899Z,922.22
2017-05-20T05:44:43.236Z,922.17
2017-05-20T05:45:11.545Z,922.13
2017-05-20T05:45:39.781Z,922.1
2017-05-20T05:46:51.147Z,922.12
2017-05-20T05:47:19.302Z,922.12
2017-05-20T05:47:47.684Z,922.13
2017-05-20T05:48:15.924Z,922.1
2017-05-20T05:48:44.294Z,922.13
2017-05-20T05:49:12.609Z,922.16
2017-05-20T05:49:40.869Z,922.12
2017-05-20T05:50:09.126Z,922.11
2017-05-20T05:50:37.264Z,922.09
2017-05-20T05:51:05.581Z,922.13
2017-05-20T05:51:33.722Z,922.09
2017-05-20T05:52:45.003Z,922.09
2017-05-20T05:53:13.341Z,922.07
2017-05-20T05:53:41.460Z,922.08
2017-05-20T05:54:09.789Z,922.04
2017-05-20T05:54:38.063Z,922.04
2017-05-20T05:55:06.290Z,921.99
2017-05-20T05:55:34.452Z,921.92
2017-05-20T05:56:02.793Z,921.91
2017-05-20T05:56:31.122Z,921.82
2017-05-20T05:56:59.445Z,921.77
2017-05-20T05:57:27.675Z,921.76
2017-05-20T05:58:38.949Z,921.72
2017-05-20T05:59:07.285Z,921.88
2017-05-20T05:59:35.389Z,921.9
2017-05-20T06:00:03.721Z,921.98
2017-05-20T06:00:31.994Z,922.08
2017-05-20T06:01:00.314Z,922.14
2017-05-20T06:01:28.484Z,922.22
2017-05-20T06:01:56.738Z,922.26
2017-05-20T06:02:25.066Z,922.29
2017-05-20T06:02:53.102Z,922.33
2017-05-20T06:03:21.338Z,922.35
2017-05-20T06:04:32.525Z,922.37
2017-05-20T06:05:00.674Z,922.42
2017-05-20T06:05:28.971Z,922.4
2017-05-20T06:05:57.301Z,922.39
2017-05-20T06:06:25.570Z,922.38
2017-05-20T06:06:53.780Z,922.36
2017-05-20T06:07:22.137Z,922.35
2017-05-20T06:07:50.390Z,922.33
2017-05-20T06:08:18.627Z,922.32
2017-05-20T06:08:46.942Z,922.31
2017-05-20T06:09:15.178Z,922.28
2017-05-20T06:10:26.365Z,922.24
2017-05-20T06:10:54.707Z,922.18
2017-05-20T06:11:23.097Z,922.19
2017-05-20T06:11:51.434Z,922.17
2017-05-20T06:12:19.709Z,922.22
2017-05-20T06:12:47.838Z,922.22
2017-05-20T06:13:16.005Z,922.24
2017-05-20T06:13:44.351Z,922.3
2017-05-20T06:14:12.587Z,922.32
2017-05-20T06:14:40.821Z,922.35
2017-05-20T06:15:09.057Z,922.39
2017-05-20T06:16:20.339Z,922.4
2017-05-20T06:16:48.674Z,922.38
2017-05-20T06:17:16.972Z,922.4
2017-05-20T06:17:45.304Z,922.37
2017-05-20T06:18:13.490Z,922.34
2017-05-20T06:18:41.898Z,922.35
2017-05-20T06:19:10.153Z,922.29
2017-05-20T06:19:38.506Z,922.3
2017-05-20T06:20:06.734Z,922.28
2017-05-20T06:20:35.052Z,922.32
2017-05-20T06:21:03.189Z,922.31
2017-05-20T06:22:14.467Z,922.29
2017-05-20T06:22:42.803Z,922.28
2017-05-20T06:23:11.099Z,922.27
2017-05-20T06:23:39.433Z,922.25
2017-05-20T06:24:07.714Z,922.27
2017-05-20T06:24:36.121Z,922.27
2017-05-20T06:25:04.284Z,922.28
2017-05-20T06:25:32.444Z,922.25
2017-05-20T06:26:00.765Z,922.27
2017-05-20T06:26:29.081Z,922.29
2017-05-20T06:26:57.314Z,922.3
2017-05-20T06:28:08.591Z,922.3
2017-05-20T06:28:36.923Z,922.33
2017-05-20T06:29:05.309Z,922.31
2017-05-20T06:29:33.644Z,922.33
2017-05-20T06:30:02.013Z,922.34
2017-05-20T06:30:30.325Z,922.34
2017-05-20T06:30:58.489Z,922.36
2017-05-20T06:31:26.741Z,922.35
2017-05-20T06:31:54.882Z,922.33
2017-05-20T06:32:23.208Z,922.31
2017-05-20T06:32:51.438Z,922.38
2017-05-20T06:34:02.618Z,922.39
2017-05-20T06:34:30.769Z,922.43
2017-05-20T06:34:59.063Z,922.41
2017-05-20T06:35:27.390Z,922.42
2017-05-20T06:35:55.566Z,922.43
2017-05-20T06:36:23.969Z,922.42
2017-05-20T06:36:52.234Z,922.36
2017-05-20T06:37:20.582Z,922.37
2017-05-20T06:37:48.901Z,922.34
2017-05-20T06:38:17.123Z,922.34
2017-05-20T06:38:45.265Z,922.35
2017-05-20T06:39:56.538Z,922.33
2017-05-20T06:40:24.777Z,922.36
2017-05-20T06:40:53.070Z,922.37
2017-05-20T06:41:21.300Z,922.39
2017-05-20T06:41:49.672Z,922.36
2017-05-20T06:42:18.525Z,922.37
2017-05-20T06:42:46.698Z,922.39
2017-05-20T06:43:15.049Z,922.45